sensor_id;sensor_type;location;lat;lon;timestamp;pressure;altitude;pressure_sealevel;temperature;humidity
47080;BME280;33067;49.296;14.470;2023-05-12T00:00:24;96819.50;;;17.35;37.70
47080;BME280;33067;49.296;14.470;2023-05-12T00:02:49;96820.40;;;17.48;37.81
47080;BME280;33067;49.296;14.470;2023-05-12T00:05:15;96821.52;;;16.94;37.88
47080;BME280;33067;49.296;14.470;2023-05-12T00:07:40;96821.45;;;17.24;37.94
47080;BME280;33067;49.296;14.470;2023-05-12T00:10:06;96818.62;;;17.11;37.89
47080;BME280;33067;49.296;14.470;2023-05-12T00:12:31;96816.56;;;16.93;38.06
47080;BME280;33067;49.296;14.470;2023-05-12T00:14:57;96814.20;;;16.92;38.13
47080;BME280;33067;49.296;14.470;2023-05-12T00:17:22;96817.44;;;17.13;37.82
47080;BME280;33067;49.296;14.470;2023-05-12T00:19:48;96821.47;;;17.51;37.58
47080;BME280;33067;49.296;14.470;2023-05-12T00:22:14;96822.55;;;16.97;38.09
47080;BME280;33067;49.296;14.470;2023-05-12T00:24:39;96825.11;;;17.06;38.04
47080;BME280;33067;49.296;14.470;2023-05-12T00:27:04;96825.38;;;17.09;37.97
47080;BME280;33067;49.296;14.470;2023-05-12T00:29:29;96826.42;;;17.45;37.72
47080;BME280;33067;49.296;14.470;2023-05-12T00:31:55;96828.88;;;17.44;38.10
47080;BME280;33067;49.296;14.470;2023-05-12T00:34:20;96830.81;;;17.12;38.35
47080;BME280;33067;49.296;14.470;2023-05-12T00:36:46;96832.32;;;17.37;38.17
47080;BME280;33067;49.296;14.470;2023-05-12T00:39:11;96835.67;;;17.15;38.57
47080;BME280;33067;49.296;14.470;2023-05-12T00:41:37;96832.40;;;16.85;38.60
47080;BME280;33067;49.296;14.470;2023-05-12T00:44:02;96836.61;;;16.66;38.04
47080;BME280;33067;49.296;14.470;2023-05-12T00:46:27;96836.30;;;16.60;38.01
47080;BME280;33067;49.296;14.470;2023-05-12T00:48:52;96833.83;;;16.95;38.04
47080;BME280;33067;49.296;14.470;2023-05-12T00:51:18;96829.77;;;16.66;37.76
47080;BME280;33067;49.296;14.470;2023-05-12T00:53:43;96830.92;;;16.85;37.82
47080;BME280;33067;49.296;14.470;2023-05-12T00:56:09;96826.26;;;16.82;37.96
47080;BME280;33067;49.296;14.470;2023-05-12T00:58:35;96827.60;;;16.94;37.59
47080;BME280;33067;49.296;14.470;2023-05-12T01:01:00;96829.39;;;16.73;38.04
47080;BME280;33067;49.296;14.470;2023-05-12T01:03:26;96826.88;;;16.68;38.82
47080;BME280;33067;49.296;14.470;2023-05-12T01:05:56;96822.88;;;16.52;39.05
47080;BME280;33067;49.296;14.470;2023-05-12T01:08:19;96826.83;;;16.62;38.39
47080;BME280;33067;49.296;14.470;2023-05-12T01:10:43;96828.52;;;16.76;38.40
47080;BME280;33067;49.296;14.470;2023-05-12T01:13:08;96826.48;;;16.72;38.63
47080;BME280;33067;49.296;14.470;2023-05-12T01:15:35;96827.91;;;16.32;38.45
47080;BME280;33067;49.296;14.470;2023-05-12T01:18:00;96831.10;;;16.53;38.92
47080;BME280;33067;49.296;14.470;2023-05-12T01:20:26;96829.74;;;16.44;39.41
47080;BME280;33067;49.296;14.470;2023-05-12T01:22:51;96830.59;;;16.58;39.29
47080;BME280;33067;49.296;14.470;2023-05-12T01:25:16;96829.23;;;16.49;39.16
47080;BME280;33067;49.296;14.470;2023-05-12T01:27:41;96830.62;;;16.61;39.26
47080;BME280;33067;49.296;14.470;2023-05-12T01:30:08;96829.15;;;16.94;38.87
47080;BME280;33067;49.296;14.470;2023-05-12T01:32:32;96828.97;;;17.15;38.51
47080;BME280;33067;49.296;14.470;2023-05-12T01:34:57;96829.30;;;16.54;39.51
47080;BME280;33067;49.296;14.470;2023-05-12T01:37:23;96825.16;;;16.65;40.02
47080;BME280;33067;49.296;14.470;2023-05-12T01:39:48;96828.42;;;16.31;40.62
47080;BME280;33067;49.296;14.470;2023-05-12T01:42:13;96830.20;;;16.32;40.66
47080;BME280;33067;49.296;14.470;2023-05-12T01:44:38;96829.72;;;16.06;41.05
47080;BME280;33067;49.296;14.470;2023-05-12T01:47:05;96828.19;;;16.05;41.56
47080;BME280;33067;49.296;14.470;2023-05-12T01:49:29;96827.97;;;16.29;40.93
47080;BME280;33067;49.296;14.470;2023-05-12T01:51:57;96830.34;;;16.17;41.32
47080;BME280;33067;49.296;14.470;2023-05-12T01:54:20;96831.08;;;16.02;41.98
47080;BME280;33067;49.296;14.470;2023-05-12T01:56:46;96833.86;;;15.98;42.16
47080;BME280;33067;49.296;14.470;2023-05-12T01:59:12;96837.22;;;15.92;42.38
47080;BME280;33067;49.296;14.470;2023-05-12T02:01:37;96840.47;;;15.92;42.27
47080;BME280;33067;49.296;14.470;2023-05-12T02:04:03;96840.54;;;15.72;41.19
47080;BME280;33067;49.296;14.470;2023-05-12T02:06:27;96839.80;;;15.33;40.63
47080;BME280;33067;49.296;14.470;2023-05-12T02:08:53;96842.04;;;15.66;41.04
47080;BME280;33067;49.296;14.470;2023-05-12T02:12:59;96842.85;;;15.44;40.71
47080;BME280;33067;49.296;14.470;2023-05-12T02:15:24;96843.61;;;15.44;40.45
47080;BME280;33067;49.296;14.470;2023-05-12T02:17:49;96847.94;;;15.38;39.91
47080;BME280;33067;49.296;14.470;2023-05-12T02:20:14;96848.94;;;14.96;40.61
47080;BME280;33067;49.296;14.470;2023-05-12T02:22:41;96849.75;;;15.02;40.47
47080;BME280;33067;49.296;14.470;2023-05-12T02:25:06;96847.17;;;14.40;41.60
47080;BME280;33067;49.296;14.470;2023-05-12T02:27:30;96849.24;;;14.95;41.10
47080;BME280;33067;49.296;14.470;2023-05-12T02:29:56;96851.03;;;14.53;41.63
47080;BME280;33067;49.296;14.470;2023-05-12T02:32:21;96848.78;;;14.74;41.41
47080;BME280;33067;49.296;14.470;2023-05-12T02:34:46;96848.13;;;14.68;41.22
47080;BME280;33067;49.296;14.470;2023-05-12T02:37:13;96849.04;;;14.54;41.68
47080;BME280;33067;49.296;14.470;2023-05-12T02:39:37;96847.21;;;14.87;41.01
47080;BME280;33067;49.296;14.470;2023-05-12T02:42:02;96845.48;;;14.47;41.32
47080;BME280;33067;49.296;14.470;2023-05-12T02:44:27;96847.55;;;14.65;42.17
47080;BME280;33067;49.296;14.470;2023-05-12T02:46:55;96843.22;;;14.65;41.59
47080;BME280;33067;49.296;14.470;2023-05-12T02:49:18;96841.52;;;14.78;41.58
47080;BME280;33067;49.296;14.470;2023-05-12T02:51:43;96841.84;;;14.78;41.91
47080;BME280;33067;49.296;14.470;2023-05-12T02:54:08;96840.99;;;14.57;41.18
47080;BME280;33067;49.296;14.470;2023-05-12T02:56:34;96842.39;;;14.86;40.96
47080;BME280;33067;49.296;14.470;2023-05-12T02:58:59;96841.99;;;15.21;40.65
47080;BME280;33067;49.296;14.470;2023-05-12T03:01:25;96842.28;;;14.80;41.13
47080;BME280;33067;49.296;14.470;2023-05-12T03:03:51;96838.86;;;14.75;41.57
47080;BME280;33067;49.296;14.470;2023-05-12T03:06:16;96840.69;;;14.77;41.79
47080;BME280;33067;49.296;14.470;2023-05-12T03:08:41;96838.61;;;14.93;40.49
47080;BME280;33067;49.296;14.470;2023-05-12T03:11:07;96838.62;;;15.39;40.41
47080;BME280;33067;49.296;14.470;2023-05-12T03:13:32;96836.91;;;15.04;40.88
47080;BME280;33067;49.296;14.470;2023-05-12T03:15:58;96837.35;;;15.15;40.34
47080;BME280;33067;49.296;14.470;2023-05-12T03:18:23;96840.53;;;15.20;41.28
47080;BME280;33067;49.296;14.470;2023-05-12T03:20:48;96840.38;;;14.60;41.54
47080;BME280;33067;49.296;14.470;2023-05-12T03:23:14;96841.06;;;15.24;41.10
47080;BME280;33067;49.296;14.470;2023-05-12T03:25:39;96843.13;;;15.30;40.88
47080;BME280;33067;49.296;14.470;2023-05-12T03:28:05;96843.99;;;14.72;41.17
47080;BME280;33067;49.296;14.470;2023-05-12T03:30:30;96845.28;;;15.01;40.92
47080;BME280;33067;49.296;14.470;2023-05-12T03:32:55;96845.09;;;14.51;42.16
47080;BME280;33067;49.296;14.470;2023-05-12T03:35:21;96848.52;;;13.92;42.58
47080;BME280;33067;49.296;14.470;2023-05-12T03:37:46;96846.79;;;14.54;41.98
47080;BME280;33067;49.296;14.470;2023-05-12T03:40:12;96849.23;;;13.90;42.80
47080;BME280;33067;49.296;14.470;2023-05-12T03:42:37;96855.50;;;13.85;43.37
47080;BME280;33067;49.296;14.470;2023-05-12T03:45:03;96852.29;;;13.90;43.20
47080;BME280;33067;49.296;14.470;2023-05-12T03:47:28;96856.90;;;13.76;43.32
47080;BME280;33067;49.296;14.470;2023-05-12T03:49:53;96857.19;;;13.59;43.69
47080;BME280;33067;49.296;14.470;2023-05-12T03:52:18;96858.11;;;13.46;43.95
47080;BME280;33067;49.296;14.470;2023-05-12T03:54:43;96860.08;;;14.25;43.33
47080;BME280;33067;49.296;14.470;2023-05-12T03:57:09;96862.71;;;14.01;43.12
47080;BME280;33067;49.296;14.470;2023-05-12T03:59:35;96862.63;;;13.72;43.36
47080;BME280;33067;49.296;14.470;2023-05-12T04:02:01;96862.64;;;14.33;42.65
47080;BME280;33067;49.296;14.470;2023-05-12T04:04:26;96862.85;;;14.06;43.02
47080;BME280;33067;49.296;14.470;2023-05-12T04:06:51;96862.49;;;14.27;42.44
47080;BME280;33067;49.296;14.470;2023-05-12T04:09:16;96863.31;;;14.56;42.23
47080;BME280;33067;49.296;14.470;2023-05-12T04:11:41;96867.01;;;14.71;42.14
47080;BME280;33067;49.296;14.470;2023-05-12T04:14:07;96866.76;;;14.55;42.33
47080;BME280;33067;49.296;14.470;2023-05-12T04:16:32;96867.98;;;13.32;44.07
47080;BME280;33067;49.296;14.470;2023-05-12T04:18:57;96872.44;;;13.37;43.95
47080;BME280;33067;49.296;14.470;2023-05-12T04:21:22;96874.24;;;13.53;43.91
47080;BME280;33067;49.296;14.470;2023-05-12T04:23:51;96874.71;;;13.69;44.27
47080;BME280;33067;49.296;14.470;2023-05-12T04:26:14;96873.67;;;13.92;44.18
47080;BME280;33067;49.296;14.470;2023-05-12T04:28:38;96878.23;;;13.64;44.54
47080;BME280;33067;49.296;14.470;2023-05-12T04:31:03;96879.19;;;13.66;44.68
47080;BME280;33067;49.296;14.470;2023-05-12T04:33:29;96885.35;;;13.44;45.39
47080;BME280;33067;49.296;14.470;2023-05-12T04:35:55;96884.41;;;13.90;44.30
47080;BME280;33067;49.296;14.470;2023-05-12T04:38:19;96887.48;;;14.03;43.92
47080;BME280;33067;49.296;14.470;2023-05-12T04:40:44;96887.93;;;13.40;44.39
47080;BME280;33067;49.296;14.470;2023-05-12T04:43:10;96892.88;;;13.55;44.33
47080;BME280;33067;49.296;14.470;2023-05-12T04:45:35;96894.06;;;14.24;43.45
47080;BME280;33067;49.296;14.470;2023-05-12T04:48:01;96893.47;;;14.28;43.09
47080;BME280;33067;49.296;14.470;2023-05-12T04:50:26;96895.62;;;14.07;42.98
47080;BME280;33067;49.296;14.470;2023-05-12T04:52:52;96900.82;;;14.18;43.07
47080;BME280;33067;49.296;14.470;2023-05-12T04:55:18;96904.20;;;14.16;43.04
47080;BME280;33067;49.296;14.470;2023-05-12T04:57:42;96906.99;;;13.88;43.55
47080;BME280;33067;49.296;14.470;2023-05-12T05:00:09;96905.99;;;14.01;43.09
47080;BME280;33067;49.296;14.470;2023-05-12T05:02:33;96911.97;;;14.12;43.23
47080;BME280;33067;49.296;14.470;2023-05-12T05:04:58;96908.20;;;13.99;43.33
47080;BME280;33067;49.296;14.470;2023-05-12T05:07:24;96909.19;;;14.08;43.57
47080;BME280;33067;49.296;14.470;2023-05-12T05:09:49;96906.86;;;13.62;44.09
47080;BME280;33067;49.296;14.470;2023-05-12T05:12:15;96909.13;;;13.97;43.77
47080;BME280;33067;49.296;14.470;2023-05-12T05:14:40;96905.98;;;14.21;43.44
47080;BME280;33067;49.296;14.470;2023-05-12T05:17:06;96907.36;;;14.40;43.11
47080;BME280;33067;49.296;14.470;2023-05-12T05:19:31;96906.48;;;14.41;42.77
47080;BME280;33067;49.296;14.470;2023-05-12T05:21:58;96913.62;;;14.64;42.97
47080;BME280;33067;49.296;14.470;2023-05-12T05:24:23;96911.92;;;14.46;43.12
47080;BME280;33067;49.296;14.470;2023-05-12T05:26:49;96913.63;;;14.71;42.46
47080;BME280;33067;49.296;14.470;2023-05-12T05:29:13;96914.66;;;14.69;42.62
47080;BME280;33067;49.296;14.470;2023-05-12T05:31:38;96917.23;;;14.67;42.62
47080;BME280;33067;49.296;14.470;2023-05-12T05:34:03;96916.12;;;14.53;42.44
47080;BME280;33067;49.296;14.470;2023-05-12T05:36:29;96917.45;;;14.56;42.89
47080;BME280;33067;49.296;14.470;2023-05-12T05:38:55;96917.87;;;14.60;42.83
47080;BME280;33067;49.296;14.470;2023-05-12T05:41:20;96918.05;;;14.54;43.14
47080;BME280;33067;49.296;14.470;2023-05-12T05:43:45;96925.94;;;13.92;43.79
47080;BME280;33067;49.296;14.470;2023-05-12T05:46:11;96926.93;;;14.02;43.78
47080;BME280;33067;49.296;14.470;2023-05-12T05:48:36;96927.21;;;13.87;44.11
47080;BME280;33067;49.296;14.470;2023-05-12T05:51:02;96927.39;;;14.77;43.71
47080;BME280;33067;49.296;14.470;2023-05-12T05:53:28;96933.75;;;14.54;43.34
47080;BME280;33067;49.296;14.470;2023-05-12T05:55:53;96932.47;;;14.41;43.48
47080;BME280;33067;49.296;14.470;2023-05-12T05:58:20;96931.91;;;14.68;43.10
47080;BME280;33067;49.296;14.470;2023-05-12T06:00:44;96934.48;;;14.55;43.29
47080;BME280;33067;49.296;14.470;2023-05-12T06:03:09;96937.95;;;14.38;43.49
47080;BME280;33067;49.296;14.470;2023-05-12T06:05:34;96941.87;;;13.88;44.12
47080;BME280;33067;49.296;14.470;2023-05-12T06:07:59;96943.23;;;14.36;43.85
47080;BME280;33067;49.296;14.470;2023-05-12T06:10:25;96942.13;;;14.68;43.67
47080;BME280;33067;49.296;14.470;2023-05-12T06:12:50;96949.88;;;14.01;44.67
47080;BME280;33067;49.296;14.470;2023-05-12T06:15:15;96954.07;;;13.97;44.18
47080;BME280;33067;49.296;14.470;2023-05-12T06:17:40;96956.39;;;14.07;44.33
47080;BME280;33067;49.296;14.470;2023-05-12T06:20:07;96958.37;;;14.40;44.42
47080;BME280;33067;49.296;14.470;2023-05-12T06:22:31;96956.27;;;14.61;43.95
47080;BME280;33067;49.296;14.470;2023-05-12T06:24:56;96954.29;;;14.58;43.93
47080;BME280;33067;49.296;14.470;2023-05-12T06:27:22;96955.98;;;14.84;43.43
47080;BME280;33067;49.296;14.470;2023-05-12T06:29:47;96960.83;;;14.03;44.34
47080;BME280;33067;49.296;14.470;2023-05-12T06:32:12;96963.78;;;13.65;45.46
47080;BME280;33067;49.296;14.470;2023-05-12T06:34:38;96967.52;;;14.07;44.97
47080;BME280;33067;49.296;14.470;2023-05-12T06:37:04;96965.09;;;14.11;45.11
47080;BME280;33067;49.296;14.470;2023-05-12T06:39:29;96970.88;;;13.59;45.19
47080;BME280;33067;49.296;14.470;2023-05-12T06:41:54;96969.70;;;13.75;45.22
47080;BME280;33067;49.296;14.470;2023-05-12T06:44:20;96980.23;;;13.62;45.38
47080;BME280;33067;49.296;14.470;2023-05-12T06:46:45;96980.10;;;14.12;44.53
47080;BME280;33067;49.296;14.470;2023-05-12T06:49:11;96981.34;;;13.79;45.13
47080;BME280;33067;49.296;14.470;2023-05-12T06:51:36;96980.75;;;14.15;44.79
47080;BME280;33067;49.296;14.470;2023-05-12T06:54:02;96979.63;;;14.04;44.75
47080;BME280;33067;49.296;14.470;2023-05-12T06:56:27;96987.47;;;14.01;44.83
47080;BME280;33067;49.296;14.470;2023-05-12T06:58:52;96984.22;;;13.41;46.09
47080;BME280;33067;49.296;14.470;2023-05-12T07:01:19;96990.42;;;13.48;44.88
47080;BME280;33067;49.296;14.470;2023-05-12T07:03:43;96984.03;;;13.92;44.81
47080;BME280;33067;49.296;14.470;2023-05-12T07:06:10;96988.61;;;14.18;44.33
47080;BME280;33067;49.296;14.470;2023-05-12T07:08:34;96991.60;;;13.72;44.79
47080;BME280;33067;49.296;14.470;2023-05-12T07:11:01;96986.15;;;14.81;43.91
47080;BME280;33067;49.296;14.470;2023-05-12T07:13:25;96987.89;;;13.46;45.55
47080;BME280;33067;49.296;14.470;2023-05-12T07:15:50;96986.91;;;13.76;45.06
47080;BME280;33067;49.296;14.470;2023-05-12T07:18:15;96994.74;;;12.94;45.86
47080;BME280;33067;49.296;14.470;2023-05-12T07:20:41;96990.38;;;13.52;45.47
47080;BME280;33067;49.296;14.470;2023-05-12T07:23:06;96996.04;;;12.96;45.77
47080;BME280;33067;49.296;14.470;2023-05-12T07:25:31;96990.01;;;13.02;45.43
47080;BME280;33067;49.296;14.470;2023-05-12T07:27:57;96987.33;;;12.62;46.03
47080;BME280;33067;49.296;14.470;2023-05-12T07:30:22;96987.86;;;12.72;46.29
47080;BME280;33067;49.296;14.470;2023-05-12T07:32:48;96983.38;;;13.06;46.27
47080;BME280;33067;49.296;14.470;2023-05-12T07:35:13;96984.25;;;13.47;45.15
47080;BME280;33067;49.296;14.470;2023-05-12T07:37:38;96988.36;;;13.53;44.94
47080;BME280;33067;49.296;14.470;2023-05-12T07:40:05;96990.91;;;13.99;44.02
47080;BME280;33067;49.296;14.470;2023-05-12T07:42:29;96993.95;;;13.67;44.69
47080;BME280;33067;49.296;14.470;2023-05-12T07:44:55;96997.90;;;13.54;44.57
47080;BME280;33067;49.296;14.470;2023-05-12T07:47:19;96996.43;;;14.02;44.14
47080;BME280;33067;49.296;14.470;2023-05-12T07:49:44;96998.16;;;13.55;44.32
47080;BME280;33067;49.296;14.470;2023-05-12T07:52:10;97000.58;;;13.61;44.44
47080;BME280;33067;49.296;14.470;2023-05-12T07:54:35;96998.03;;;14.13;44.01
47080;BME280;33067;49.296;14.470;2023-05-12T07:57:00;97007.68;;;13.75;43.70
47080;BME280;33067;49.296;14.470;2023-05-12T07:59:25;97004.97;;;13.79;43.78
47080;BME280;33067;49.296;14.470;2023-05-12T08:01:51;97006.11;;;13.90;44.06
47080;BME280;33067;49.296;14.470;2023-05-12T08:04:17;97002.88;;;14.33;43.76
47080;BME280;33067;49.296;14.470;2023-05-12T08:06:42;97004.88;;;14.00;43.12
47080;BME280;33067;49.296;14.470;2023-05-12T08:09:07;97007.40;;;13.69;43.46
47080;BME280;33067;49.296;14.470;2023-05-12T08:11:33;97008.69;;;13.61;43.46
47080;BME280;33067;49.296;14.470;2023-05-12T08:13:58;97005.49;;;13.77;43.70
47080;BME280;33067;49.296;14.470;2023-05-12T08:16:23;97011.16;;;14.47;42.72
47080;BME280;33067;49.296;14.470;2023-05-12T08:18:48;97013.76;;;14.06;42.30
47080;BME280;33067;49.296;14.470;2023-05-12T08:21:14;97016.33;;;13.23;43.45
47080;BME280;33067;49.296;14.470;2023-05-12T08:23:39;97010.45;;;13.63;43.75
47080;BME280;33067;49.296;14.470;2023-05-12T08:26:05;97018.25;;;13.23;43.27
47080;BME280;33067;49.296;14.470;2023-05-12T08:28:30;97018.54;;;12.72;44.81
47080;BME280;33067;49.296;14.470;2023-05-12T08:30:55;97016.99;;;13.15;43.96
47080;BME280;33067;49.296;14.470;2023-05-12T08:33:20;97024.04;;;12.95;44.17
47080;BME280;33067;49.296;14.470;2023-05-12T08:35:46;97012.72;;;13.24;43.59
47080;BME280;33067;49.296;14.470;2023-05-12T08:38:13;97014.96;;;13.50;43.35
47080;BME280;33067;49.296;14.470;2023-05-12T08:40:43;97018.24;;;13.73;42.75
47080;BME280;33067;49.296;14.470;2023-05-12T08:43:07;97010.59;;;13.95;41.74
47080;BME280;33067;49.296;14.470;2023-05-12T08:45:27;97023.16;;;13.28;42.56
47080;BME280;33067;49.296;14.470;2023-05-12T08:47:52;97015.40;;;13.05;43.56
47080;BME280;33067;49.296;14.470;2023-05-12T08:50:21;97014.48;;;13.67;42.98
47080;BME280;33067;49.296;14.470;2023-05-12T08:52:43;97014.91;;;14.16;42.32
47080;BME280;33067;49.296;14.470;2023-05-12T08:55:09;97020.16;;;13.69;41.83
47080;BME280;33067;49.296;14.470;2023-05-12T08:57:33;97026.61;;;12.78;43.61
47080;BME280;33067;49.296;14.470;2023-05-12T09:00:01;97017.62;;;12.22;44.82
47080;BME280;33067;49.296;14.470;2023-05-12T09:02:24;97018.49;;;12.43;44.53
47080;BME280;33067;49.296;14.470;2023-05-12T09:04:51;97019.89;;;13.18;43.45
47080;BME280;33067;49.296;14.470;2023-05-12T09:07:15;97023.47;;;13.84;42.55
47080;BME280;33067;49.296;14.470;2023-05-12T09:09:41;97022.97;;;13.68;41.80
47080;BME280;33067;49.296;14.470;2023-05-12T09:12:10;97025.36;;;14.13;41.45
47080;BME280;33067;49.296;14.470;2023-05-12T09:14:34;97030.39;;;14.22;40.83
47080;BME280;33067;49.296;14.470;2023-05-12T09:17:01;97029.67;;;13.86;41.29
47080;BME280;33067;49.296;14.470;2023-05-12T09:19:21;97032.94;;;13.14;42.83
47080;BME280;33067;49.296;14.470;2023-05-12T09:21:47;97030.61;;;14.69;40.83
47080;BME280;33067;49.296;14.470;2023-05-12T09:24:11;97033.68;;;14.09;41.04
47080;BME280;33067;49.296;14.470;2023-05-12T09:26:45;97027.56;;;14.00;40.80
47080;BME280;33067;49.296;14.470;2023-05-12T09:29:05;97022.80;;;13.76;41.71
47080;BME280;33067;49.296;14.470;2023-05-12T09:31:27;97031.35;;;14.12;40.92
47080;BME280;33067;49.296;14.470;2023-05-12T09:33:52;97026.51;;;13.37;42.35
47080;BME280;33067;49.296;14.470;2023-05-12T09:36:18;97030.38;;;13.58;41.71
47080;BME280;33067;49.296;14.470;2023-05-12T09:38:42;97038.23;;;13.86;41.04
47080;BME280;33067;49.296;14.470;2023-05-12T09:41:07;97039.47;;;13.61;41.75
47080;BME280;33067;49.296;14.470;2023-05-12T09:43:33;97033.58;;;13.80;41.89
47080;BME280;33067;49.296;14.470;2023-05-12T09:46:03;97040.46;;;13.01;42.72
47080;BME280;33067;49.296;14.470;2023-05-12T09:48:24;97038.73;;;13.22;41.50
47080;BME280;33067;49.296;14.470;2023-05-12T09:50:50;97039.09;;;13.63;41.47
47080;BME280;33067;49.296;14.470;2023-05-12T09:53:14;97042.47;;;14.19;41.06
47080;BME280;33067;49.296;14.470;2023-05-12T09:55:42;97040.16;;;14.36;40.81
47080;BME280;33067;49.296;14.470;2023-05-12T09:58:08;97042.32;;;13.94;41.26
47080;BME280;33067;49.296;14.470;2023-05-12T10:00:30;97044.85;;;13.17;42.49
47080;BME280;33067;49.296;14.470;2023-05-12T10:02:55;97039.20;;;13.42;42.55
47080;BME280;33067;49.296;14.470;2023-05-12T10:05:20;97035.49;;;13.66;42.33
47080;BME280;33067;49.296;14.470;2023-05-12T10:07:49;97039.34;;;14.18;41.50
47080;BME280;33067;49.296;14.470;2023-05-12T10:10:13;97034.50;;;14.19;40.71
47080;BME280;33067;49.296;14.470;2023-05-12T10:12:36;97034.87;;;13.91;40.98
47080;BME280;33067;49.296;14.470;2023-05-12T10:15:03;97034.94;;;13.73;41.03
47080;BME280;33067;49.296;14.470;2023-05-12T10:17:27;97042.23;;;13.67;41.63
47080;BME280;33067;49.296;14.470;2023-05-12T10:19:51;97027.53;;;13.34;42.19
47080;BME280;33067;49.296;14.470;2023-05-12T10:22:18;97031.94;;;14.10;41.49
47080;BME280;33067;49.296;14.470;2023-05-12T10:24:43;97033.47;;;14.28;41.26
47080;BME280;33067;49.296;14.470;2023-05-12T10:27:07;97033.43;;;14.57;40.31
47080;BME280;33067;49.296;14.470;2023-05-12T10:29:33;97036.22;;;14.69;40.45
47080;BME280;33067;49.296;14.470;2023-05-12T10:32:00;97031.78;;;14.28;40.65
47080;BME280;33067;49.296;14.470;2023-05-12T10:34:28;97032.95;;;14.65;40.41
47080;BME280;33067;49.296;14.470;2023-05-12T10:36:49;97037.02;;;14.81;40.15
47080;BME280;33067;49.296;14.470;2023-05-12T10:39:13;97044.98;;;14.90;39.76
47080;BME280;33067;49.296;14.470;2023-05-12T10:41:38;97045.68;;;14.33;40.80
47080;BME280;33067;49.296;14.470;2023-05-12T10:44:05;97043.74;;;13.78;40.00
47080;BME280;33067;49.296;14.470;2023-05-12T10:46:29;97046.34;;;15.06;39.76
47080;BME280;33067;49.296;14.470;2023-05-12T10:48:56;97045.49;;;15.20;39.53
47080;BME280;33067;49.296;14.470;2023-05-12T10:51:20;97039.97;;;15.16;39.46
47080;BME280;33067;49.296;14.470;2023-05-12T10:53:45;97042.36;;;14.92;39.88
47080;BME280;33067;49.296;14.470;2023-05-12T10:56:11;97058.78;;;14.60;40.50
47080;BME280;33067;49.296;14.470;2023-05-12T10:58:36;97046.07;;;14.60;40.72
47080;BME280;33067;49.296;14.470;2023-05-12T11:01:05;97049.31;;;14.58;40.18
47080;BME280;33067;49.296;14.470;2023-05-12T11:03:28;97046.03;;;14.86;40.33
47080;BME280;33067;49.296;14.470;2023-05-12T11:05:57;97046.53;;;14.85;40.03
47080;BME280;33067;49.296;14.470;2023-05-12T11:08:16;97038.73;;;15.10;39.95
47080;BME280;33067;49.296;14.470;2023-05-12T11:10:42;97040.99;;;14.83;39.63
47080;BME280;33067;49.296;14.470;2023-05-12T11:13:08;97043.55;;;15.04;40.12
47080;BME280;33067;49.296;14.470;2023-05-12T11:15:32;97043.45;;;14.67;39.79
47080;BME280;33067;49.296;14.470;2023-05-12T11:18:03;97052.13;;;14.77;40.16
47080;BME280;33067;49.296;14.470;2023-05-12T11:20:23;97051.33;;;15.08;39.74
47080;BME280;33067;49.296;14.470;2023-05-12T11:22:48;97057.02;;;12.99;42.12
47080;BME280;33067;49.296;14.470;2023-05-12T11:25:14;97049.32;;;14.07;41.50
47080;BME280;33067;49.296;14.470;2023-05-12T11:27:46;97051.26;;;14.21;41.59
47080;BME280;33067;49.296;14.470;2023-05-12T11:30:04;97049.48;;;14.11;41.23
47080;BME280;33067;49.296;14.470;2023-05-12T11:32:29;97057.03;;;13.45;42.57
47080;BME280;33067;49.296;14.470;2023-05-12T11:34:54;97058.19;;;13.95;41.34
47080;BME280;33067;49.296;14.470;2023-05-12T11:37:19;97039.77;;;13.79;41.21
47080;BME280;33067;49.296;14.470;2023-05-12T11:39:44;97061.38;;;13.50;42.02
47080;BME280;33067;49.296;14.470;2023-05-12T11:42:09;97050.64;;;13.88;41.55
47080;BME280;33067;49.296;14.470;2023-05-12T11:44:35;97054.33;;;13.80;41.27
47080;BME280;33067;49.296;14.470;2023-05-12T11:47:02;97057.24;;;13.70;41.04
47080;BME280;33067;49.296;14.470;2023-05-12T11:49:26;97059.52;;;13.60;41.31
47080;BME280;33067;49.296;14.470;2023-05-12T11:51:52;97055.99;;;13.22;41.70
47080;BME280;33067;49.296;14.470;2023-05-12T11:54:16;97059.37;;;13.93;41.08
47080;BME280;33067;49.296;14.470;2023-05-12T11:56:47;97056.01;;;13.88;41.03
47080;BME280;33067;49.296;14.470;2023-05-12T11:59:07;97064.33;;;13.82;40.53
47080;BME280;33067;49.296;14.470;2023-05-12T12:01:31;97068.18;;;13.79;40.54
47080;BME280;33067;49.296;14.470;2023-05-12T12:03:57;97066.45;;;13.33;41.24
47080;BME280;33067;49.296;14.470;2023-05-12T12:06:22;97066.05;;;13.65;41.46
47080;BME280;33067;49.296;14.470;2023-05-12T12:08:50;97065.19;;;14.01;40.72
47080;BME280;33067;49.296;14.470;2023-05-12T12:11:13;97074.50;;;14.04;41.11
47080;BME280;33067;49.296;14.470;2023-05-12T12:13:47;97095.93;;;13.15;42.82
47080;BME280;33067;49.296;14.470;2023-05-12T12:16:04;97133.98;;;12.75;43.28
47080;BME280;33067;49.296;14.470;2023-05-12T12:18:28;97094.70;;;11.85;45.10
47080;BME280;33067;49.296;14.470;2023-05-12T12:20:54;97093.78;;;11.41;45.30
47080;BME280;33067;49.296;14.470;2023-05-12T12:23:19;97101.25;;;12.07;44.44
47080;BME280;33067;49.296;14.470;2023-05-12T12:25:45;97100.48;;;13.18;42.79
47080;BME280;33067;49.296;14.470;2023-05-12T12:28:10;97119.40;;;11.91;43.86
47080;BME280;33067;49.296;14.470;2023-05-12T12:30:35;97093.99;;;12.42;42.70
47080;BME280;33067;49.296;14.470;2023-05-12T12:33:01;97095.77;;;12.56;42.66
47080;BME280;33067;49.296;14.470;2023-05-12T12:35:26;97099.43;;;13.16;41.92
47080;BME280;33067;49.296;14.470;2023-05-12T12:37:51;97098.70;;;13.79;41.50
47080;BME280;33067;49.296;14.470;2023-05-12T12:40:17;97101.36;;;13.53;41.36